createdAt,value
2023-01-17T00:02:47.961Z,13.67
2023-01-17T00:08:08.873Z,9.10
2023-01-17T00:13:11.131Z,13.40
2023-01-17T00:18:13.518Z,16.77
2023-01-17T00:23:40.174Z,13.67
2023-01-17T00:28:43.567Z,10.80
2023-01-17T00:33:45.695Z,12.93
2023-01-17T00:38:47.854Z,11.10
2023-01-17T00:44:08.537Z,10.07
2023-01-17T00:49:29.206Z,10.10
2023-01-17T00:54:49.951Z,9.57
2023-01-17T01:00:10.673Z,9.80
2023-01-17T01:05:32.993Z,16.43
2023-01-17T01:10:54.252Z,6.53
2023-01-17T01:16:16.525Z,10.33
2023-01-17T01:21:37.359Z,10.47
2023-01-17T01:26:57.935Z,10.23
2023-01-17T01:32:18.628Z,9.37
2023-01-17T01:37:20.815Z,11.17
2023-01-17T01:42:23.129Z,10.30
2023-01-17T01:47:35.369Z,10.20
2023-01-17T01:52:43.932Z,13.10
2023-01-17T01:57:49.133Z,10.63
2023-01-17T02:02:52.399Z,10.20
2023-01-17T02:08:03.849Z,11.13
2023-01-17T02:13:06.733Z,10.63
2023-01-17T02:18:31.071Z,11.93
2023-01-17T02:23:55.148Z,12.40
2023-01-17T02:29:22.326Z,11.43
2023-01-17T02:34:41.901Z,12.90
2023-01-17T02:40:10.283Z,13.68
2023-01-17T02:45:17.935Z,11.03
2023-01-17T02:50:24.315Z,15.67
2023-01-17T02:55:54.498Z,15.20
2023-01-17T03:01:18.019Z,22.92
2023-01-17T03:06:23.257Z,13.20
2023-01-17T03:11:25.552Z,14.20
2023-01-17T03:16:32.665Z,16.57
2023-01-17T03:21:35.020Z,18.87
2023-01-17T03:26:37.423Z,18.63
2023-01-17T03:31:39.664Z,19.30
2023-01-17T03:36:41.993Z,14.07
2023-01-17T03:41:44.240Z,19.63
2023-01-17T03:46:46.470Z,15.47
2023-01-17T03:51:48.844Z,16.30
2023-01-17T03:56:51.137Z,14.13
2023-01-17T04:01:53.489Z,15.37
2023-01-17T04:06:56.018Z,17.63
2023-01-17T04:11:58.344Z,16.87
2023-01-17T04:17:01.669Z,14.63
2023-01-17T04:22:04.128Z,14.83
2023-01-17T04:27:06.428Z,14.17
2023-01-17T04:32:08.715Z,15.77
2023-01-17T04:37:11.075Z,12.13
2023-01-17T04:42:13.270Z,13.93
2023-01-17T04:47:15.553Z,13.67
2023-01-17T04:52:19.995Z,16.70
2023-01-17T04:57:22.215Z,18.27
2023-01-17T05:02:24.513Z,16.47
2023-01-17T05:07:26.796Z,17.27
2023-01-17T05:12:29.124Z,17.80
2023-01-17T05:17:31.369Z,15.77
2023-01-17T05:22:33.596Z,19.90
2023-01-17T05:27:36.190Z,16.10
2023-01-17T05:32:41.381Z,20.23
2023-01-17T05:37:49.411Z,18.70
2023-01-17T05:42:53.557Z,23.13
2023-01-17T05:47:57.026Z,15.23
2023-01-17T05:53:01.687Z,21.33
2023-01-17T05:58:04.625Z,20.93
2023-01-17T06:03:06.867Z,23.70
2023-01-17T06:08:09.222Z,18.13
2023-01-17T06:13:14.533Z,15.40
2023-01-17T06:18:18.199Z,20.43
2023-01-17T06:23:21.027Z,17.83
2023-01-17T06:28:23.915Z,20.60
2023-01-17T06:33:26.238Z,19.30
2023-01-17T06:38:30.173Z,15.27
2023-01-17T06:44:37.251Z,17.67
2023-01-17T06:50:13.848Z,13.90
2023-01-17T06:55:16.336Z,14.35
2023-01-17T07:00:25.554Z,14.13
2023-01-17T07:05:28.801Z,15.90
2023-01-17T07:10:31.084Z,19.00
2023-01-17T07:15:33.377Z,14.70
2023-01-17T07:20:35.716Z,16.27
2023-01-17T07:25:38.001Z,18.07
2023-01-17T07:30:40.747Z,15.30
2023-01-17T07:35:43.283Z,17.00
2023-01-17T07:40:46.355Z,17.43
2023-01-17T07:45:52.367Z,14.73
2023-01-17T07:50:55.739Z,17.10
2023-01-17T07:56:04.956Z,15.47
2023-01-17T08:01:09.650Z,14.68
2023-01-17T08:06:23.959Z,15.03
2023-01-17T08:11:26.415Z,16.70
2023-01-17T08:16:30.029Z,20.17
2023-01-17T08:21:32.499Z,24.07
2023-01-17T08:26:34.787Z,17.63
2023-01-17T08:31:37.329Z,16.70
2023-01-17T08:36:39.723Z,18.10
2023-01-17T08:41:41.939Z,22.53
2023-01-17T08:46:44.444Z,22.27
2023-01-17T08:51:46.816Z,18.13
2023-01-17T08:56:50.034Z,20.37
2023-01-17T09:01:52.792Z,17.30
2023-01-17T09:06:55.060Z,16.33
2023-01-17T09:11:57.357Z,19.73
2023-01-17T09:16:59.784Z,24.20
2023-01-17T09:22:06.967Z,17.70
2023-01-17T09:27:09.428Z,22.27
2023-01-17T09:32:17.505Z,17.37
2023-01-17T09:37:19.801Z,23.40
2023-01-17T09:42:37.325Z,20.43
2023-01-17T09:47:44.391Z,20.00
2023-01-17T09:52:47.522Z,13.33
2023-01-17T09:57:58.639Z,16.87
2023-01-17T10:03:24.102Z,20.57
2023-01-17T10:08:33.733Z,17.83
2023-01-17T10:19:15.469Z,22.23
2023-01-17T10:24:42.442Z,16.93
2023-01-17T10:29:46.334Z,22.43
2023-01-17T10:34:51.555Z,23.67
2023-01-17T10:39:56.591Z,21.10
2023-01-17T10:45:14.414Z,18.77
2023-01-17T10:50:18.458Z,21.97
2023-01-17T10:55:45.861Z,23.13
2023-01-17T11:01:16.209Z,18.43
2023-01-17T11:06:25.923Z,26.43
2023-01-17T11:16:34.185Z,19.87
2023-01-17T11:21:38.544Z,19.57
2023-01-17T11:26:48.267Z,22.93
2023-01-17T11:37:10.689Z,18.87
2023-01-17T11:42:38.480Z,25.80
2023-01-17T11:47:40.760Z,26.27
2023-01-17T11:52:43.605Z,29.47
2023-01-17T11:57:50.593Z,26.63
2023-01-17T12:03:30.143Z,24.60
2023-01-17T12:08:51.533Z,19.97
2023-01-17T12:14:06.123Z,21.27
2023-01-17T12:19:39.155Z,25.27
2023-01-17T12:24:47.490Z,29.87
2023-01-17T12:30:11.333Z,24.63
2023-01-17T12:35:25.536Z,24.03
2023-01-17T12:40:35.850Z,24.73
2023-01-17T12:45:46.363Z,21.63
2023-01-17T12:50:57.648Z,23.87
2023-01-17T12:56:17.014Z,26.57
2023-01-17T13:01:29.922Z,21.67
2023-01-17T13:06:42.770Z,20.43
2023-01-17T13:11:58.080Z,19.57
2023-01-17T13:17:25.177Z,18.97
2023-01-17T13:22:28.195Z,23.20
2023-01-17T13:27:35.749Z,23.03
2023-01-17T13:32:55.115Z,23.00
2023-01-17T13:38:07.834Z,19.83
2023-01-17T13:43:31.376Z,24.77
2023-01-17T13:48:38.612Z,25.67
2023-01-17T13:53:40.906Z,17.87
2023-01-17T13:58:54.766Z,19.77
2023-01-17T14:04:06.454Z,20.73
2023-01-17T14:09:08.739Z,24.87
2023-01-17T14:14:42.116Z,23.23
2023-01-17T14:19:48.350Z,21.23
2023-01-17T14:24:57.441Z,17.57
2023-01-17T14:30:04.107Z,21.50
2023-01-17T14:35:06.852Z,17.93
2023-01-17T14:40:22.552Z,17.27
2023-01-17T14:45:28.446Z,19.00
2023-01-17T14:50:36.973Z,21.27
2023-01-17T14:55:48.266Z,20.73
2023-01-17T15:01:01.834Z,19.43
2023-01-17T15:06:12.562Z,18.13
2023-01-17T15:11:30.375Z,18.37
2023-01-17T15:16:38.406Z,24.43
2023-01-17T15:21:51.467Z,18.13
2023-01-17T15:26:54.798Z,15.50
2023-01-17T15:31:59.011Z,22.23
2023-01-17T15:37:08.194Z,22.00
2023-01-17T15:42:31.662Z,22.05
2023-01-17T15:47:35.769Z,18.33
2023-01-17T15:52:51.131Z,23.07
2023-01-17T15:57:53.510Z,17.17
2023-01-17T16:02:56.940Z,22.20
2023-01-17T16:08:06.374Z,18.30
2023-01-17T16:13:13.899Z,23.80
2023-01-17T16:18:24.639Z,20.40
2023-01-17T16:23:27.903Z,20.20
2023-01-17T16:28:30.292Z,22.83
2023-01-17T16:33:32.601Z,20.60
2023-01-17T16:38:34.881Z,20.40
2023-01-17T16:43:37.246Z,22.57
2023-01-17T16:48:39.540Z,21.60
2023-01-17T16:53:41.838Z,17.53
2023-01-17T16:58:44.321Z,20.27
2023-01-17T17:03:47.030Z,25.47
2023-01-17T17:08:49.354Z,25.50
2023-01-17T17:13:52.185Z,22.57
2023-01-17T17:18:59.791Z,22.23
2023-01-17T17:24:02.190Z,23.07
2023-01-17T17:29:06.074Z,19.87
2023-01-17T17:34:12.097Z,21.40
2023-01-17T17:39:17.607Z,20.80
2023-01-17T17:44:19.987Z,24.77
2023-01-17T17:49:23.067Z,22.50
2023-01-17T17:54:27.659Z,27.17
2023-01-17T17:59:48.039Z,30.00
2023-01-17T18:10:38.258Z,32.03
2023-01-17T18:15:40.577Z,28.00
2023-01-17T18:20:42.860Z,31.70
2023-01-17T18:25:45.532Z,31.00
2023-01-17T18:30:47.797Z,30.77
2023-01-17T18:35:54.658Z,28.53
2023-01-17T18:41:04.153Z,28.03
2023-01-17T18:51:13.427Z,32.40
2023-01-17T18:56:18.785Z,31.37
2023-01-17T19:01:23.999Z,27.70
2023-01-17T19:06:30.537Z,30.80
2023-01-17T19:11:36.971Z,33.08
2023-01-17T19:16:40.538Z,30.87
2023-01-17T19:21:42.993Z,36.57
2023-01-17T19:26:46.024Z,28.83
2023-01-17T19:31:48.412Z,29.33
2023-01-17T19:36:52.680Z,33.87
2023-01-17T19:41:54.882Z,35.27
2023-01-17T19:46:57.203Z,30.10
2023-01-17T19:52:03.792Z,38.90
2023-01-17T19:57:06.191Z,32.87
2023-01-17T20:02:09.880Z,29.00
2023-01-17T20:07:12.482Z,24.73
2023-01-17T20:12:14.871Z,28.93
2023-01-17T20:17:17.150Z,31.43
2023-01-17T20:22:19.624Z,32.43
2023-01-17T20:27:26.757Z,32.07
2023-01-17T20:32:29.000Z,29.73
2023-01-17T20:37:31.363Z,28.23
2023-01-17T20:42:36.761Z,26.33
2023-01-17T20:47:39.051Z,29.90
2023-01-17T20:52:41.338Z,31.40
2023-01-17T20:57:43.532Z,31.77
2023-01-17T21:02:45.875Z,25.07
2023-01-17T21:07:48.314Z,32.33
2023-01-17T21:12:50.617Z,30.70
2023-01-17T21:17:52.983Z,31.37
2023-01-17T21:22:55.206Z,26.67
2023-01-17T21:27:57.735Z,33.10
2023-01-17T21:33:00.577Z,23.47
2023-01-17T21:38:02.888Z,25.63
2023-01-17T21:43:05.088Z,29.37
2023-01-17T21:48:08.436Z,29.57
2023-01-17T21:53:10.687Z,28.87
2023-01-17T21:58:35.927Z,23.07
2023-01-17T22:03:38.348Z,27.07
2023-01-17T22:08:41.127Z,22.87
2023-01-17T22:13:44.572Z,29.00
2023-01-17T22:18:47.300Z,27.80
2023-01-17T22:23:52.452Z,24.43
2023-01-17T22:28:55.165Z,26.17
2023-01-17T22:33:59.894Z,26.33
2023-01-17T22:39:02.202Z,25.70
2023-01-17T22:44:05.743Z,25.13
2023-01-17T22:49:08.702Z,26.00
2023-01-17T22:54:11.729Z,26.83
2023-01-17T22:59:14.009Z,23.60
2023-01-17T23:04:18.895Z,26.37
2023-01-17T23:09:21.173Z,23.30
2023-01-17T23:14:24.786Z,25.93
2023-01-17T23:19:29.169Z,28.40
2023-01-17T23:24:31.433Z,30.07
2023-01-17T23:29:33.638Z,25.93
2023-01-17T23:34:35.891Z,30.50
2023-01-17T23:39:38.060Z,31.23
2023-01-17T23:44:40.260Z,24.80
2023-01-17T23:49:43.755Z,23.90
2023-01-17T23:54:45.912Z,26.97
2023-01-17T23:59:48.136Z,27.27
